Correll, Minnesota
Current Conditions -  °F | °C
As of 7:14 PM on Monday 20 Oct 2014 (Local Time) from KAQP Reporting Station
Clear Clear  
Wind Chill: 52°   Ceiling: Unl
Heat Index: 52°   Visibility: 7mi
Dew Point: 37°   Wind: 3mph
Humidity: 58%   Direction: 20°NNE
Pressure: 30.03"   Gusts: NA
Location:  45.23°N, 96.16°W
Report Text: KAQP 210014Z AUTO 02003KT 7SM CLR 11/03 A3003 RMK AO2
Loading
Personal Weather Stations






























Interactive Weather Map
Tropical Storm Tracking
New forecast layout! Learn more

10-Day Weather Forecast

Advertisements
Track Severe Weather on mobile